sensor_id;sensor_type;location;lat;lon;timestamp;P1;durP1;ratioP1;P2;durP2;ratioP2
46437;SDS011;32137;48.728;9.142;2023-04-07T00:02:10;13.18;;;8.55;;
46437;SDS011;32137;48.728;9.142;2023-04-07T00:04:36;12.68;;;9.00;;
46437;SDS011;32137;48.728;9.142;2023-04-07T00:07:01;15.02;;;8.50;;
46437;SDS011;32137;48.728;9.142;2023-04-07T00:09:27;10.85;;;7.53;;
46437;SDS011;32137;48.728;9.142;2023-04-07T00:11:52;15.93;;;8.35;;
46437;SDS011;32137;48.728;9.142;2023-04-07T00:14:18;13.98;;;7.82;;
46437;SDS011;32137;48.728;9.142;2023-04-07T00:16:43;12.43;;;9.07;;
46437;SDS011;32137;48.728;9.142;2023-04-07T00:19:09;10.10;;;7.25;;
46437;SDS011;32137;48.728;9.142;2023-04-07T00:21:35;15.35;;;9.18;;
46437;SDS011;32137;48.728;9.142;2023-04-07T00:24:00;11.27;;;8.13;;
46437;SDS011;32137;48.728;9.142;2023-04-07T00:26:26;11.27;;;8.02;;
46437;SDS011;32137;48.728;9.142;2023-04-07T00:28:55;13.13;;;8.43;;
46437;SDS011;32137;48.728;9.142;2023-04-07T00:31:21;14.15;;;9.10;;
46437;SDS011;32137;48.728;9.142;2023-04-07T00:33:47;14.10;;;9.20;;
46437;SDS011;32137;48.728;9.142;2023-04-07T00:36:13;14.32;;;9.48;;
46437;SDS011;32137;48.728;9.142;2023-04-07T00:38:39;12.50;;;8.30;;
46437;SDS011;32137;48.728;9.142;2023-04-07T00:41:05;14.50;;;9.25;;
46437;SDS011;32137;48.728;9.142;2023-04-07T00:43:30;13.00;;;8.77;;
46437;SDS011;32137;48.728;9.142;2023-04-07T00:45:56;12.95;;;9.00;;
46437;SDS011;32137;48.728;9.142;2023-04-07T00:48:22;13.02;;;8.13;;
46437;SDS011;32137;48.728;9.142;2023-04-07T00:50:47;13.75;;;9.82;;
46437;SDS011;32137;48.728;9.142;2023-04-07T00:53:13;13.60;;;9.75;;
46437;SDS011;32137;48.728;9.142;2023-04-07T00:55:39;12.65;;;8.18;;
46437;SDS011;32137;48.728;9.142;2023-04-07T00:58:05;12.93;;;8.57;;
46437;SDS011;32137;48.728;9.142;2023-04-07T01:00:30;12.98;;;8.93;;
46437;SDS011;32137;48.728;9.142;2023-04-07T01:05:36;14.95;;;8.88;;
46437;SDS011;32137;48.728;9.142;2023-04-07T01:08:12;15.02;;;8.32;;
46437;SDS011;32137;48.728;9.142;2023-04-07T01:10:44;12.43;;;8.50;;
46437;SDS011;32137;48.728;9.142;2023-04-07T01:13:35;19.13;;;9.57;;
46437;SDS011;32137;48.728;9.142;2023-04-07T01:16:08;12.35;;;8.70;;
46437;SDS011;32137;48.728;9.142;2023-04-07T01:18:37;10.45;;;8.13;;
46437;SDS011;32137;48.728;9.142;2023-04-07T01:21:14;13.88;;;8.40;;
46437;SDS011;32137;48.728;9.142;2023-04-07T01:23:51;13.30;;;8.18;;
46437;SDS011;32137;48.728;9.142;2023-04-07T01:26:33;11.90;;;8.90;;
46437;SDS011;32137;48.728;9.142;2023-04-07T01:29:03;14.90;;;8.48;;
46437;SDS011;32137;48.728;9.142;2023-04-07T01:31:38;14.30;;;9.27;;
46437;SDS011;32137;48.728;9.142;2023-04-07T01:34:05;28.40;;;9.50;;
46437;SDS011;32137;48.728;9.142;2023-04-07T01:36:34;12.23;;;8.18;;
46437;SDS011;32137;48.728;9.142;2023-04-07T01:39:00;13.35;;;8.32;;
46437;SDS011;32137;48.728;9.142;2023-04-07T01:41:26;12.95;;;7.70;;
46437;SDS011;32137;48.728;9.142;2023-04-07T01:43:54;12.65;;;8.80;;
46437;SDS011;32137;48.728;9.142;2023-04-07T01:46:20;13.35;;;8.07;;
46437;SDS011;32137;48.728;9.142;2023-04-07T01:48:46;13.45;;;8.93;;
46437;SDS011;32137;48.728;9.142;2023-04-07T01:51:12;12.23;;;8.07;;
46437;SDS011;32137;48.728;9.142;2023-04-07T01:53:42;12.63;;;8.38;;
46437;SDS011;32137;48.728;9.142;2023-04-07T01:56:10;12.93;;;7.78;;
46437;SDS011;32137;48.728;9.142;2023-04-07T01:58:35;11.90;;;8.13;;
46437;SDS011;32137;48.728;9.142;2023-04-07T02:01:01;12.90;;;8.27;;
46437;SDS011;32137;48.728;9.142;2023-04-07T02:03:29;13.13;;;8.70;;
46437;SDS011;32137;48.728;9.142;2023-04-07T02:06:02;18.80;;;8.40;;
46437;SDS011;32137;48.728;9.142;2023-04-07T02:08:31;12.80;;;8.13;;
46437;SDS011;32137;48.728;9.142;2023-04-07T02:11:00;16.75;;;8.65;;
46437;SDS011;32137;48.728;9.142;2023-04-07T02:13:27;13.60;;;8.52;;
46437;SDS011;32137;48.728;9.142;2023-04-07T02:15:54;12.80;;;8.43;;
46437;SDS011;32137;48.728;9.142;2023-04-07T02:18:22;14.30;;;9.50;;
46437;SDS011;32137;48.728;9.142;2023-04-07T02:20:49;15.70;;;9.75;;
46437;SDS011;32137;48.728;9.142;2023-04-07T02:23:16;11.88;;;8.05;;
46437;SDS011;32137;48.728;9.142;2023-04-07T02:25:42;15.48;;;9.18;;
46437;SDS011;32137;48.728;9.142;2023-04-07T02:28:07;13.43;;;8.45;;
46437;SDS011;32137;48.728;9.142;2023-04-07T02:30:33;17.38;;;9.60;;
46437;SDS011;32137;48.728;9.142;2023-04-07T02:33:00;12.77;;;8.80;;
46437;SDS011;32137;48.728;9.142;2023-04-07T02:35:25;13.10;;;9.23;;
46437;SDS011;32137;48.728;9.142;2023-04-07T02:37:51;13.32;;;8.73;;
46437;SDS011;32137;48.728;9.142;2023-04-07T02:40:17;17.48;;;9.23;;
46437;SDS011;32137;48.728;9.142;2023-04-07T02:42:43;15.65;;;9.25;;
46437;SDS011;32137;48.728;9.142;2023-04-07T02:45:09;19.02;;;9.70;;
46437;SDS011;32137;48.728;9.142;2023-04-07T02:47:35;13.85;;;9.40;;
46437;SDS011;32137;48.728;9.142;2023-04-07T02:50:01;15.35;;;9.73;;
46437;SDS011;32137;48.728;9.142;2023-04-07T02:52:27;13.23;;;9.27;;
46437;SDS011;32137;48.728;9.142;2023-04-07T02:54:52;16.98;;;9.32;;
46437;SDS011;32137;48.728;9.142;2023-04-07T02:57:18;15.68;;;11.75;;
46437;SDS011;32137;48.728;9.142;2023-04-07T02:59:44;13.98;;;9.40;;
46437;SDS011;32137;48.728;9.142;2023-04-07T03:02:09;12.52;;;8.82;;
46437;SDS011;32137;48.728;9.142;2023-04-07T03:04:35;12.85;;;9.27;;
46437;SDS011;32137;48.728;9.142;2023-04-07T03:07:00;13.05;;;8.18;;
46437;SDS011;32137;48.728;9.142;2023-04-07T03:09:26;12.43;;;9.43;;
46437;SDS011;32137;48.728;9.142;2023-04-07T03:11:52;18.65;;;8.90;;
46437;SDS011;32137;48.728;9.142;2023-04-07T03:14:17;14.45;;;8.68;;
46437;SDS011;32137;48.728;9.142;2023-04-07T03:16:43;14.50;;;9.00;;
46437;SDS011;32137;48.728;9.142;2023-04-07T03:19:09;17.40;;;9.10;;
46437;SDS011;32137;48.728;9.142;2023-04-07T03:21:35;12.30;;;8.70;;
46437;SDS011;32137;48.728;9.142;2023-04-07T03:24:01;13.27;;;8.68;;
46437;SDS011;32137;48.728;9.142;2023-04-07T03:26:27;16.42;;;9.23;;
46437;SDS011;32137;48.728;9.142;2023-04-07T03:28:52;14.77;;;9.18;;
46437;SDS011;32137;48.728;9.142;2023-04-07T03:31:18;19.20;;;10.27;;
46437;SDS011;32137;48.728;9.142;2023-04-07T03:33:43;14.68;;;9.45;;
46437;SDS011;32137;48.728;9.142;2023-04-07T03:36:09;14.18;;;8.93;;
46437;SDS011;32137;48.728;9.142;2023-04-07T03:38:35;13.05;;;8.63;;
46437;SDS011;32137;48.728;9.142;2023-04-07T03:41:00;14.48;;;9.90;;
46437;SDS011;32137;48.728;9.142;2023-04-07T03:43:26;12.07;;;9.00;;
46437;SDS011;32137;48.728;9.142;2023-04-07T03:45:52;16.95;;;8.70;;
46437;SDS011;32137;48.728;9.142;2023-04-07T03:48:18;16.10;;;10.40;;
46437;SDS011;32137;48.728;9.142;2023-04-07T03:50:44;11.95;;;8.18;;
46437;SDS011;32137;48.728;9.142;2023-04-07T03:53:10;15.98;;;9.18;;
46437;SDS011;32137;48.728;9.142;2023-04-07T03:55:36;13.00;;;8.82;;
46437;SDS011;32137;48.728;9.142;2023-04-07T03:58:02;15.00;;;9.52;;
46437;SDS011;32137;48.728;9.142;2023-04-07T04:00:27;12.27;;;8.43;;
46437;SDS011;32137;48.728;9.142;2023-04-07T04:02:55;17.77;;;10.60;;
46437;SDS011;32137;48.728;9.142;2023-04-07T04:05:20;16.42;;;9.25;;
46437;SDS011;32137;48.728;9.142;2023-04-07T04:07:46;16.45;;;9.50;;
46437;SDS011;32137;48.728;9.142;2023-04-07T04:10:11;13.52;;;8.85;;
46437;SDS011;32137;48.728;9.142;2023-04-07T04:12:37;13.85;;;8.77;;
46437;SDS011;32137;48.728;9.142;2023-04-07T04:15:03;14.07;;;9.30;;
46437;SDS011;32137;48.728;9.142;2023-04-07T04:17:28;18.08;;;9.20;;
46437;SDS011;32137;48.728;9.142;2023-04-07T04:19:54;16.58;;;8.90;;
46437;SDS011;32137;48.728;9.142;2023-04-07T04:22:19;13.57;;;9.02;;
46437;SDS011;32137;48.728;9.142;2023-04-07T04:24:45;14.25;;;9.00;;
46437;SDS011;32137;48.728;9.142;2023-04-07T04:27:10;13.90;;;9.07;;
46437;SDS011;32137;48.728;9.142;2023-04-07T04:29:36;15.85;;;10.13;;
46437;SDS011;32137;48.728;9.142;2023-04-07T04:32:02;16.52;;;9.38;;
46437;SDS011;32137;48.728;9.142;2023-04-07T04:34:27;14.02;;;9.73;;
46437;SDS011;32137;48.728;9.142;2023-04-07T04:36:53;14.30;;;9.90;;
46437;SDS011;32137;48.728;9.142;2023-04-07T04:39:18;14.77;;;10.73;;
46437;SDS011;32137;48.728;9.142;2023-04-07T04:41:44;15.27;;;8.77;;
46437;SDS011;32137;48.728;9.142;2023-04-07T04:44:10;14.10;;;9.05;;
46437;SDS011;32137;48.728;9.142;2023-04-07T04:46:36;15.52;;;10.45;;
46437;SDS011;32137;48.728;9.142;2023-04-07T04:49:01;13.48;;;9.48;;
46437;SDS011;32137;48.728;9.142;2023-04-07T04:51:27;15.82;;;10.40;;
46437;SDS011;32137;48.728;9.142;2023-04-07T04:53:52;19.15;;;11.82;;
46437;SDS011;32137;48.728;9.142;2023-04-07T04:56:18;17.77;;;10.85;;
46437;SDS011;32137;48.728;9.142;2023-04-07T04:58:43;17.25;;;10.52;;
46437;SDS011;32137;48.728;9.142;2023-04-07T05:01:12;16.73;;;11.13;;
46437;SDS011;32137;48.728;9.142;2023-04-07T05:03:37;16.27;;;10.85;;
46437;SDS011;32137;48.728;9.142;2023-04-07T05:06:03;16.92;;;11.00;;
46437;SDS011;32137;48.728;9.142;2023-04-07T05:08:29;18.27;;;10.60;;
46437;SDS011;32137;48.728;9.142;2023-04-07T05:10:55;19.85;;;11.52;;
46437;SDS011;32137;48.728;9.142;2023-04-07T05:13:21;21.23;;;12.48;;
46437;SDS011;32137;48.728;9.142;2023-04-07T05:15:46;19.35;;;10.75;;
46437;SDS011;32137;48.728;9.142;2023-04-07T05:18:12;17.15;;;9.90;;
46437;SDS011;32137;48.728;9.142;2023-04-07T05:20:37;13.82;;;10.27;;
46437;SDS011;32137;48.728;9.142;2023-04-07T05:23:03;18.42;;;11.73;;
46437;SDS011;32137;48.728;9.142;2023-04-07T05:25:29;16.15;;;10.90;;
46437;SDS011;32137;48.728;9.142;2023-04-07T05:27:54;23.23;;;15.45;;
46437;SDS011;32137;48.728;9.142;2023-04-07T05:30:21;30.05;;;15.65;;
46437;SDS011;32137;48.728;9.142;2023-04-07T05:32:47;42.80;;;22.27;;
46437;SDS011;32137;48.728;9.142;2023-04-07T05:35:12;55.50;;;24.73;;
46437;SDS011;32137;48.728;9.142;2023-04-07T05:37:38;26.80;;;15.82;;
46437;SDS011;32137;48.728;9.142;2023-04-07T05:40:04;36.45;;;19.33;;
46437;SDS011;32137;48.728;9.142;2023-04-07T05:42:30;95.45;;;46.90;;
46437;SDS011;32137;48.728;9.142;2023-04-07T05:44:56;78.05;;;41.80;;
46437;SDS011;32137;48.728;9.142;2023-04-07T05:47:21;42.95;;;25.90;;
46437;SDS011;32137;48.728;9.142;2023-04-07T05:49:47;26.85;;;17.75;;
46437;SDS011;32137;48.728;9.142;2023-04-07T05:52:13;23.67;;;14.93;;
46437;SDS011;32137;48.728;9.142;2023-04-07T05:54:38;22.40;;;14.05;;
46437;SDS011;32137;48.728;9.142;2023-04-07T05:57:04;15.90;;;11.43;;
46437;SDS011;32137;48.728;9.142;2023-04-07T05:59:31;17.83;;;11.50;;
46437;SDS011;32137;48.728;9.142;2023-04-07T06:01:57;16.25;;;11.88;;
46437;SDS011;32137;48.728;9.142;2023-04-07T06:04:22;17.65;;;9.70;;
46437;SDS011;32137;48.728;9.142;2023-04-07T06:06:48;14.38;;;9.35;;
46437;SDS011;32137;48.728;9.142;2023-04-07T06:09:13;20.52;;;12.13;;
46437;SDS011;32137;48.728;9.142;2023-04-07T06:11:39;16.70;;;10.80;;
46437;SDS011;32137;48.728;9.142;2023-04-07T06:14:05;18.15;;;11.35;;
46437;SDS011;32137;48.728;9.142;2023-04-07T06:16:30;17.25;;;10.70;;
46437;SDS011;32137;48.728;9.142;2023-04-07T06:18:56;14.65;;;11.35;;
46437;SDS011;32137;48.728;9.142;2023-04-07T06:21:21;17.58;;;10.85;;
46437;SDS011;32137;48.728;9.142;2023-04-07T06:23:47;16.73;;;10.48;;
46437;SDS011;32137;48.728;9.142;2023-04-07T06:26:12;15.20;;;10.32;;
46437;SDS011;32137;48.728;9.142;2023-04-07T06:28:38;16.52;;;10.98;;
46437;SDS011;32137;48.728;9.142;2023-04-07T06:31:04;16.05;;;11.82;;
46437;SDS011;32137;48.728;9.142;2023-04-07T06:33:30;18.70;;;11.68;;
46437;SDS011;32137;48.728;9.142;2023-04-07T06:35:55;16.70;;;11.93;;
46437;SDS011;32137;48.728;9.142;2023-04-07T06:38:21;13.68;;;10.35;;
46437;SDS011;32137;48.728;9.142;2023-04-07T06:40:47;17.25;;;10.35;;
46437;SDS011;32137;48.728;9.142;2023-04-07T06:43:12;18.85;;;11.23;;
46437;SDS011;32137;48.728;9.142;2023-04-07T06:45:38;15.20;;;10.20;;
46437;SDS011;32137;48.728;9.142;2023-04-07T06:48:03;14.85;;;9.93;;
46437;SDS011;32137;48.728;9.142;2023-04-07T06:50:29;19.15;;;11.10;;
46437;SDS011;32137;48.728;9.142;2023-04-07T06:52:55;14.27;;;9.85;;
46437;SDS011;32137;48.728;9.142;2023-04-07T06:55:20;16.58;;;10.15;;
46437;SDS011;32137;48.728;9.142;2023-04-07T06:57:46;15.88;;;10.25;;
46437;SDS011;32137;48.728;9.142;2023-04-07T07:00:11;21.98;;;12.77;;
46437;SDS011;32137;48.728;9.142;2023-04-07T07:02:37;17.20;;;10.82;;
46437;SDS011;32137;48.728;9.142;2023-04-07T07:05:03;17.08;;;10.13;;
46437;SDS011;32137;48.728;9.142;2023-04-07T07:07:29;16.80;;;10.70;;
46437;SDS011;32137;48.728;9.142;2023-04-07T07:09:54;13.57;;;10.15;;
46437;SDS011;32137;48.728;9.142;2023-04-07T07:12:20;17.67;;;11.38;;
46437;SDS011;32137;48.728;9.142;2023-04-07T07:14:46;14.88;;;10.38;;
46437;SDS011;32137;48.728;9.142;2023-04-07T07:17:11;15.32;;;9.90;;
46437;SDS011;32137;48.728;9.142;2023-04-07T07:19:38;17.30;;;9.93;;
46437;SDS011;32137;48.728;9.142;2023-04-07T07:22:03;20.88;;;11.65;;
46437;SDS011;32137;48.728;9.142;2023-04-07T07:24:29;24.13;;;11.15;;
46437;SDS011;32137;48.728;9.142;2023-04-07T07:26:57;14.55;;;10.50;;
46437;SDS011;32137;48.728;9.142;2023-04-07T07:29:23;17.77;;;10.10;;
46437;SDS011;32137;48.728;9.142;2023-04-07T07:31:49;18.10;;;11.18;;
46437;SDS011;32137;48.728;9.142;2023-04-07T07:34:14;14.98;;;10.20;;
46437;SDS011;32137;48.728;9.142;2023-04-07T07:36:40;17.60;;;10.18;;
46437;SDS011;32137;48.728;9.142;2023-04-07T07:39:05;16.77;;;9.82;;
46437;SDS011;32137;48.728;9.142;2023-04-07T07:41:31;14.63;;;9.35;;
46437;SDS011;32137;48.728;9.142;2023-04-07T07:43:57;18.33;;;10.55;;
46437;SDS011;32137;48.728;9.142;2023-04-07T07:46:22;13.88;;;9.63;;
46437;SDS011;32137;48.728;9.142;2023-04-07T07:48:51;14.15;;;9.65;;
46437;SDS011;32137;48.728;9.142;2023-04-07T07:51:16;16.90;;;9.60;;
46437;SDS011;32137;48.728;9.142;2023-04-07T07:53:43;14.82;;;9.38;;
46437;SDS011;32137;48.728;9.142;2023-04-07T07:56:09;15.02;;;9.07;;
46437;SDS011;32137;48.728;9.142;2023-04-07T07:58:35;12.93;;;9.98;;
46437;SDS011;32137;48.728;9.142;2023-04-07T08:01:01;15.65;;;11.05;;
46437;SDS011;32137;48.728;9.142;2023-04-07T08:03:27;12.63;;;8.52;;
46437;SDS011;32137;48.728;9.142;2023-04-07T08:05:53;19.00;;;10.88;;
46437;SDS011;32137;48.728;9.142;2023-04-07T08:08:18;29.60;;;15.10;;
46437;SDS011;32137;48.728;9.142;2023-04-07T08:10:44;22.73;;;12.50;;
46437;SDS011;32137;48.728;9.142;2023-04-07T08:13:09;19.67;;;11.93;;
46437;SDS011;32137;48.728;9.142;2023-04-07T08:15:35;16.33;;;8.98;;
46437;SDS011;32137;48.728;9.142;2023-04-07T08:18:01;15.10;;;9.35;;
46437;SDS011;32137;48.728;9.142;2023-04-07T08:20:28;14.10;;;9.95;;
46437;SDS011;32137;48.728;9.142;2023-04-07T08:22:55;13.93;;;8.57;;
46437;SDS011;32137;48.728;9.142;2023-04-07T08:25:21;12.18;;;8.20;;
46437;SDS011;32137;48.728;9.142;2023-04-07T08:27:47;11.25;;;7.75;;
46437;SDS011;32137;48.728;9.142;2023-04-07T08:30:12;10.20;;;7.50;;
46437;SDS011;32137;48.728;9.142;2023-04-07T08:32:44;15.30;;;8.88;;
46437;SDS011;32137;48.728;9.142;2023-04-07T08:35:10;9.48;;;6.75;;
46437;SDS011;32137;48.728;9.142;2023-04-07T08:37:36;12.25;;;8.25;;
46437;SDS011;32137;48.728;9.142;2023-04-07T08:40:03;15.48;;;7.72;;
46437;SDS011;32137;48.728;9.142;2023-04-07T08:42:30;16.85;;;8.20;;
46437;SDS011;32137;48.728;9.142;2023-04-07T08:45:06;11.45;;;7.88;;
46437;SDS011;32137;48.728;9.142;2023-04-07T08:47:34;12.18;;;8.07;;
46437;SDS011;32137;48.728;9.142;2023-04-07T08:50:05;14.25;;;7.35;;
46437;SDS011;32137;48.728;9.142;2023-04-07T08:55:20;11.43;;;7.18;;
46437;SDS011;32137;48.728;9.142;2023-04-07T08:57:46;15.43;;;9.98;;
46437;SDS011;32137;48.728;9.142;2023-04-07T09:00:12;11.02;;;7.22;;
46437;SDS011;32137;48.728;9.142;2023-04-07T09:02:39;14.30;;;8.27;;
46437;SDS011;32137;48.728;9.142;2023-04-07T09:05:10;11.40;;;7.55;;
46437;SDS011;32137;48.728;9.142;2023-04-07T09:07:37;12.73;;;7.93;;
46437;SDS011;32137;48.728;9.142;2023-04-07T09:10:04;13.90;;;8.80;;
46437;SDS011;32137;48.728;9.142;2023-04-07T09:12:31;9.80;;;6.90;;
46437;SDS011;32137;48.728;9.142;2023-04-07T09:14:57;11.02;;;6.90;;
46437;SDS011;32137;48.728;9.142;2023-04-07T09:17:27;11.57;;;7.22;;
46437;SDS011;32137;48.728;9.142;2023-04-07T09:19:57;9.68;;;7.10;;
46437;SDS011;32137;48.728;9.142;2023-04-07T09:25:10;9.30;;;6.72;;
46437;SDS011;32137;48.728;9.142;2023-04-07T09:27:37;12.02;;;7.20;;
46437;SDS011;32137;48.728;9.142;2023-04-07T09:30:12;8.32;;;6.45;;
46437;SDS011;32137;48.728;9.142;2023-04-07T09:32:39;9.32;;;7.10;;
46437;SDS011;32137;48.728;9.142;2023-04-07T09:35:05;10.13;;;6.88;;
46437;SDS011;32137;48.728;9.142;2023-04-07T09:37:31;12.43;;;6.75;;
46437;SDS011;32137;48.728;9.142;2023-04-07T09:39:57;9.85;;;6.20;;
46437;SDS011;32137;48.728;9.142;2023-04-07T09:42:23;10.40;;;6.72;;
46437;SDS011;32137;48.728;9.142;2023-04-07T09:44:50;14.35;;;5.25;;
46437;SDS011;32137;48.728;9.142;2023-04-07T09:47:16;9.15;;;5.40;;
46437;SDS011;32137;48.728;9.142;2023-04-07T09:49:49;9.60;;;4.65;;
46437;SDS011;32137;48.728;9.142;2023-04-07T09:52:24;6.47;;;4.13;;
46437;SDS011;32137;48.728;9.142;2023-04-07T09:55:11;9.55;;;5.20;;
46437;SDS011;32137;48.728;9.142;2023-04-07T09:57:37;9.45;;;4.40;;
46437;SDS011;32137;48.728;9.142;2023-04-07T10:00:04;8.02;;;5.40;;
46437;SDS011;32137;48.728;9.142;2023-04-07T10:02:31;8.50;;;5.22;;
46437;SDS011;32137;48.728;9.142;2023-04-07T10:04:58;9.90;;;5.25;;
46437;SDS011;32137;48.728;9.142;2023-04-07T10:07:24;5.90;;;4.10;;
46437;SDS011;32137;48.728;9.142;2023-04-07T10:09:51;4.88;;;3.70;;
46437;SDS011;32137;48.728;9.142;2023-04-07T10:12:16;6.05;;;4.20;;
46437;SDS011;32137;48.728;9.142;2023-04-07T10:14:42;8.30;;;4.40;;
46437;SDS011;32137;48.728;9.142;2023-04-07T10:17:10;7.45;;;4.15;;
46437;SDS011;32137;48.728;9.142;2023-04-07T10:22:08;10.07;;;5.43;;
46437;SDS011;32137;48.728;9.142;2023-04-07T10:24:37;14.88;;;7.07;;
46437;SDS011;32137;48.728;9.142;2023-04-07T10:27:15;11.27;;;6.63;;
46437;SDS011;32137;48.728;9.142;2023-04-07T10:29:45;14.93;;;8.05;;
46437;SDS011;32137;48.728;9.142;2023-04-07T10:32:14;11.63;;;6.60;;
46437;SDS011;32137;48.728;9.142;2023-04-07T10:37:14;11.57;;;6.95;;
46437;SDS011;32137;48.728;9.142;2023-04-07T10:39:50;16.52;;;8.65;;
46437;SDS011;32137;48.728;9.142;2023-04-07T10:47:31;14.65;;;9.73;;
46437;SDS011;32137;48.728;9.142;2023-04-07T10:50:15;14.05;;;9.90;;
46437;SDS011;32137;48.728;9.142;2023-04-07T10:58:15;14.48;;;6.28;;
46437;SDS011;32137;48.728;9.142;2023-04-07T11:00:41;10.85;;;6.18;;
46437;SDS011;32137;48.728;9.142;2023-04-07T11:03:28;9.05;;;5.18;;
46437;SDS011;32137;48.728;9.142;2023-04-07T11:06:04;10.00;;;3.53;;
46437;SDS011;32137;48.728;9.142;2023-04-07T11:08:35;8.02;;;3.33;;
46437;SDS011;32137;48.728;9.142;2023-04-07T11:11:02;10.20;;;4.20;;
46437;SDS011;32137;48.728;9.142;2023-04-07T11:13:45;8.13;;;3.60;;
46437;SDS011;32137;48.728;9.142;2023-04-07T11:16:13;7.78;;;3.88;;
46437;SDS011;32137;48.728;9.142;2023-04-07T11:18:40;5.18;;;3.28;;
46437;SDS011;32137;48.728;9.142;2023-04-07T11:21:07;8.02;;;3.05;;
46437;SDS011;32137;48.728;9.142;2023-04-07T11:23:37;3.95;;;2.58;;
46437;SDS011;32137;48.728;9.142;2023-04-07T11:26:07;6.05;;;3.05;;
46437;SDS011;32137;48.728;9.142;2023-04-07T11:28:34;8.23;;;3.05;;
46437;SDS011;32137;48.728;9.142;2023-04-07T11:31:09;5.97;;;2.95;;
46437;SDS011;32137;48.728;9.142;2023-04-07T11:33:35;5.57;;;3.08;;
46437;SDS011;32137;48.728;9.142;2023-04-07T11:36:03;11.10;;;2.72;;
46437;SDS011;32137;48.728;9.142;2023-04-07T11:38:34;5.80;;;2.83;;
46437;SDS011;32137;48.728;9.142;2023-04-07T11:41:09;5.55;;;3.17;;
46437;SDS011;32137;48.728;9.142;2023-04-07T11:43:36;8.40;;;4.07;;
46437;SDS011;32137;48.728;9.142;2023-04-07T11:48:32;7.93;;;3.35;;
46437;SDS011;32137;48.728;9.142;2023-04-07T11:50:59;9.32;;;4.28;;
46437;SDS011;32137;48.728;9.142;2023-04-07T11:53:28;7.65;;;4.03;;
46437;SDS011;32137;48.728;9.142;2023-04-07T11:56:05;7.07;;;4.25;;
46437;SDS011;32137;48.728;9.142;2023-04-07T11:58:34;9.48;;;5.90;;
46437;SDS011;32137;48.728;9.142;2023-04-07T12:01:01;12.70;;;5.45;;
46437;SDS011;32137;48.728;9.142;2023-04-07T12:03:35;12.00;;;7.82;;
46437;SDS011;32137;48.728;9.142;2023-04-07T12:06:02;13.55;;;8.30;;
46437;SDS011;32137;48.728;9.142;2023-04-07T12:08:41;18.80;;;9.25;;
46437;SDS011;32137;48.728;9.142;2023-04-07T12:11:08;16.20;;;10.77;;
46437;SDS011;32137;48.728;9.142;2023-04-07T12:13:35;15.32;;;10.98;;
46437;SDS011;32137;48.728;9.142;2023-04-07T12:16:01;16.70;;;10.32;;
46437;SDS011;32137;48.728;9.142;2023-04-07T12:18:27;14.52;;;9.70;;
46437;SDS011;32137;48.728;9.142;2023-04-07T12:20:53;18.38;;;10.80;;
46437;SDS011;32137;48.728;9.142;2023-04-07T12:23:20;18.33;;;10.65;;
46437;SDS011;32137;48.728;9.142;2023-04-07T12:25:46;21.50;;;11.55;;
46437;SDS011;32137;48.728;9.142;2023-04-07T12:28:11;20.77;;;13.25;;
46437;SDS011;32137;48.728;9.142;2023-04-07T12:30:37;20.92;;;14.73;;
46437;SDS011;32137;48.728;9.142;2023-04-07T12:33:02;18.63;;;12.73;;
46437;SDS011;32137;48.728;9.142;2023-04-07T12:35:28;16.45;;;11.57;;
46437;SDS011;32137;48.728;9.142;2023-04-07T12:37:54;19.33;;;12.40;;
46437;SDS011;32137;48.728;9.142;2023-04-07T12:40:21;19.45;;;11.98;;
46437;SDS011;32137;48.728;9.142;2023-04-07T12:42:47;18.50;;;13.15;;
46437;SDS011;32137;48.728;9.142;2023-04-07T12:45:12;13.55;;;8.05;;
46437;SDS011;32137;48.728;9.142;2023-04-07T12:47:38;10.30;;;8.13;;
46437;SDS011;32137;48.728;9.142;2023-04-07T12:50:03;13.65;;;8.63;;
46437;SDS011;32137;48.728;9.142;2023-04-07T12:52:29;18.33;;;11.57;;
46437;SDS011;32137;48.728;9.142;2023-04-07T12:54:56;21.20;;;12.30;;
46437;SDS011;32137;48.728;9.142;2023-04-07T12:57:22;12.38;;;8.07;;
46437;SDS011;32137;48.728;9.142;2023-04-07T12:59:48;11.25;;;7.07;;
46437;SDS011;32137;48.728;9.142;2023-04-07T13:02:14;11.63;;;7.43;;
46437;SDS011;32137;48.728;9.142;2023-04-07T13:04:42;15.27;;;8.55;;
46437;SDS011;32137;48.728;9.142;2023-04-07T13:07:10;13.90;;;8.68;;
46437;SDS011;32137;48.728;9.142;2023-04-07T13:09:36;13.27;;;8.27;;
46437;SDS011;32137;48.728;9.142;2023-04-07T13:12:02;12.32;;;7.32;;
46437;SDS011;32137;48.728;9.142;2023-04-07T13:14:28;18.33;;;8.40;;
46437;SDS011;32137;48.728;9.142;2023-04-07T13:16:53;16.88;;;9.65;;
46437;SDS011;32137;48.728;9.142;2023-04-07T13:19:20;15.70;;;11.10;;
46437;SDS011;32137;48.728;9.142;2023-04-07T13:21:45;20.80;;;10.88;;
46437;SDS011;32137;48.728;9.142;2023-04-07T13:24:11;17.02;;;11.90;;
46437;SDS011;32137;48.728;9.142;2023-04-07T13:26:37;14.65;;;11.13;;
46437;SDS011;32137;48.728;9.142;2023-04-07T13:29:02;19.88;;;12.15;;
46437;SDS011;32137;48.728;9.142;2023-04-07T13:31:28;12.20;;;6.28;;
46437;SDS011;32137;48.728;9.142;2023-04-07T13:33:54;13.13;;;5.18;;
46437;SDS011;32137;48.728;9.142;2023-04-07T13:36:19;9.35;;;5.65;;
46437;SDS011;32137;48.728;9.142;2023-04-07T13:38:45;9.40;;;6.05;;
46437;SDS011;32137;48.728;9.142;2023-04-07T13:41:11;9.18;;;6.45;;
46437;SDS011;32137;48.728;9.142;2023-04-07T13:43:36;9.13;;;7.07;;
46437;SDS011;32137;48.728;9.142;2023-04-07T13:46:02;11.75;;;7.82;;
46437;SDS011;32137;48.728;9.142;2023-04-07T13:48:27;70.68;;;33.13;;
46437;SDS011;32137;48.728;9.142;2023-04-07T13:50:53;63.45;;;27.10;;
46437;SDS011;32137;48.728;9.142;2023-04-07T13:53:18;13.52;;;7.53;;
46437;SDS011;32137;48.728;9.142;2023-04-07T13:55:45;13.02;;;8.07;;
46437;SDS011;32137;48.728;9.142;2023-04-07T13:58:11;15.77;;;9.23;;
46437;SDS011;32137;48.728;9.142;2023-04-07T14:00:36;14.75;;;9.48;;
46437;SDS011;32137;48.728;9.142;2023-04-07T14:03:02;11.88;;;8.63;;
46437;SDS011;32137;48.728;9.142;2023-04-07T14:05:28;12.27;;;8.60;;
46437;SDS011;32137;48.728;9.142;2023-04-07T14:07:53;14.73;;;8.38;;
46437;SDS011;32137;48.728;9.142;2023-04-07T14:10:19;12.55;;;7.88;;
46437;SDS011;32137;48.728;9.142;2023-04-07T14:12:44;11.15;;;8.27;;
46437;SDS011;32137;48.728;9.142;2023-04-07T14:15:10;13.75;;;7.25;;
46437;SDS011;32137;48.728;9.142;2023-04-07T14:17:36;10.15;;;6.50;;
46437;SDS011;32137;48.728;9.142;2023-04-07T14:20:01;9.40;;;6.22;;
46437;SDS011;32137;48.728;9.142;2023-04-07T14:22:27;13.00;;;7.50;;
46437;SDS011;32137;48.728;9.142;2023-04-07T14:24:54;22.17;;;11.65;;
46437;SDS011;32137;48.728;9.142;2023-04-07T14:27:20;19.13;;;9.68;;
46437;SDS011;32137;48.728;9.142;2023-04-07T14:29:48;15.48;;;9.45;;
46437;SDS011;32137;48.728;9.142;2023-04-07T14:32:15;21.83;;;11.45;;
46437;SDS011;32137;48.728;9.142;2023-04-07T14:34:40;13.00;;;7.13;;
46437;SDS011;32137;48.728;9.142;2023-04-07T14:37:06;11.88;;;7.47;;
46437;SDS011;32137;48.728;9.142;2023-04-07T14:39:32;11.40;;;7.47;;
46437;SDS011;32137;48.728;9.142;2023-04-07T14:41:58;11.25;;;8.30;;
46437;SDS011;32137;48.728;9.142;2023-04-07T14:44:24;13.57;;;7.53;;
46437;SDS011;32137;48.728;9.142;2023-04-07T14:46:50;10.88;;;8.13;;
46437;SDS011;32137;48.728;9.142;2023-04-07T14:49:15;13.85;;;7.93;;
46437;SDS011;32137;48.728;9.142;2023-04-07T14:51:41;10.70;;;6.50;;
46437;SDS011;32137;48.728;9.142;2023-04-07T14:54:06;9.52;;;7.13;;
46437;SDS011;32137;48.728;9.142;2023-04-07T14:56:32;12.10;;;7.13;;
46437;SDS011;32137;48.728;9.142;2023-04-07T14:58:58;25.25;;;11.57;;